Time;durP1;ratioP1;P1;durP2;ratioP2;P2;SDS_P1;SDS_P2;PMS_P1;PMS_P2;Temp;Humidity;BMP_temperature;BMP_pressure;BME280_temperature;BME280_humidity;BME280_pressure;Samples;Min_cycle;Max_cycle;Signal;HPM_P1;HPM_P2
2022/06/03 00:01:36;;;;;;;7.40;6.77;;;12.70;99.90;;;;;;5034778;28;20602;-65
2022/06/03 00:04:25;;;;;;;7.27;6.80;;;12.70;99.90;;;;;;5043391;28;20589;-63
2022/06/03 00:07:06;;;;;;;6.80;6.40;;;12.60;99.90;;;;;;5053743;28;20174;-63
2022/06/03 00:09:38;;;;;;;7.20;6.70;;;12.60;99.90;;;;;;5054764;28;20178;-64
2022/06/03 00:12:41;;;;;;;8.20;7.00;;;12.50;99.90;;;;;;5054842;28;20190;-64
2022/06/03 00:15:30;;;;;;;6.80;6.40;;;12.40;99.90;;;;;;5054110;28;20178;-64
2022/06/03 00:17:55;;;;;;;6.87;6.37;;;12.40;99.90;;;;;;5054788;28;20216;-65
2022/06/03 00:20:41;;;;;;;7.20;6.70;;;12.30;99.90;;;;;;5053271;28;20607;-64
2022/06/03 00:23:25;;;;;;;6.60;6.20;;;12.30;99.90;;;;;;5054525;28;20317;-64
2022/06/03 00:26:28;;;;;;;6.93;6.53;;;12.30;99.90;;;;;;5034606;28;20179;-64
2022/06/03 00:29:05;;;;;;;8.00;7.37;;;12.40;99.90;;;;;;5047631;28;20204;-64
2022/06/03 00:32:01;;;;;;;7.77;7.23;;;12.30;99.90;;;;;;5054489;28;20202;-64
2022/06/03 00:34:48;;;;;;;7.53;7.03;;;12.20;99.90;;;;;;5054050;28;20171;-63
2022/06/03 00:37:19;;;;;;;7.60;7.00;;;12.20;99.90;;;;;;5054378;28;20183;-64
2022/06/03 00:40:13;;;;;;;7.20;6.80;;;12.20;99.90;;;;;;5054339;28;20183;-63
2022/06/03 00:42:58;;;;;;;7.80;7.13;;;12.20;99.90;;;;;;5054028;28;20214;-64
2022/06/03 00:46:01;;;;;;;7.40;6.90;;;12.10;99.90;;;;;;5053905;28;20334;-64
2022/06/03 00:48:52;;;;;;;7.87;7.37;;;12.10;99.90;;;;;;5011403;28;20274;-64
2022/06/03 00:51:39;;;;;;;7.60;7.10;;;12.10;99.90;;;;;;5039382;28;20614;-63
2022/06/03 00:54:23;;;;;;;7.27;6.87;;;12.10;99.90;;;;;;5053681;28;20207;-64
2022/06/03 00:57:03;;;;;;;8.40;7.80;;;12.00;99.90;;;;;;5053978;28;20258;-64
2022/06/03 00:59:57;;;;;;;7.93;7.33;;;12.00;99.90;;;;;;5053952;28;20171;-63
2022/06/03 01:02:37;;;;;;;8.07;7.57;;;11.90;99.90;;;;;;5053572;28;20248;-64
2022/06/03 01:05:22;;;;;;;8.50;7.90;;;11.80;99.90;;;;;;5053565;28;20220;-64
2022/06/03 01:08:02;;;;;;;8.00;7.50;;;11.80;99.90;;;;;;5053624;28;20616;-64
2022/06/03 01:11:01;;;;;;;9.20;8.30;;;11.70;99.90;;;;;;5053426;28;20221;-63
2022/06/03 01:13:40;;;;;;;7.90;7.30;;;11.80;99.90;;;;;;5053007;28;20179;-64
2022/06/03 01:16:30;;;;;;;8.07;7.57;;;11.60;99.90;;;;;;5053537;28;20167;-64
2022/06/03 01:19:02;;;;;;;10.47;7.50;;;11.50;99.90;;;;;;5053616;28;20262;-63
2022/06/03 01:21:44;;;;;;;8.53;7.73;;;11.50;99.90;;;;;;5053071;28;20211;-64
2022/06/03 01:24:21;;;;;;;8.60;8.00;;;11.50;99.90;;;;;;5053188;28;20175;-63
2022/06/03 01:27:19;;;;;;;8.70;8.10;;;11.50;99.90;;;;;;5051994;28;20185;-64
2022/06/03 01:30:14;;;;;;;8.37;7.77;;;11.50;99.90;;;;;;5053511;28;20163;-64
2022/06/03 01:32:57;;;;;;;8.33;7.60;;;11.40;99.90;;;;;;5053388;28;20206;-62
2022/06/03 01:35:48;;;;;;;9.63;8.93;;;11.30;99.90;;;;;;5053008;28;20178;-65
2022/06/03 01:38:26;;;;;;;8.40;7.80;;;11.20;99.90;;;;;;5053381;28;20292;-64
2022/06/03 01:41:13;;;;;;;9.37;8.67;;;11.20;99.90;;;;;;5052884;28;20178;-63
2022/06/03 01:44:08;;;;;;;9.17;8.37;;;11.10;99.90;;;;;;5052939;28;20202;-62
2022/06/03 01:46:43;;;;;;;8.60;7.90;;;11.10;99.90;;;;;;5029473;28;20329;-64
2022/06/03 01:49:29;;;;;;;8.53;7.60;;;11.00;99.90;;;;;;5053128;28;20166;-65
2022/06/03 01:52:20;;;;;;;8.70;8.00;;;11.00;99.90;;;;;;5051519;28;20198;-64
2022/06/03 01:55:23;;;;;;;8.10;7.50;;;10.90;99.90;;;;;;5023991;28;20190;-64
2022/06/03 01:58:06;;;;;;;8.67;8.07;;;10.90;99.90;;;;;;5031785;28;20229;-64
2022/06/03 02:00:38;;;;;;;8.70;8.00;;;10.80;99.90;;;;;;5038135;28;20305;-64
2022/06/03 02:03:09;;;;;;;19.77;9.20;;;10.80;99.90;;;;;;5052758;28;20195;-63
2022/06/03 02:05:47;;;;;;;8.63;8.03;;;10.70;99.90;;;;;;5052317;28;20205;-62
2022/06/03 02:08:49;;;;;;;8.90;8.17;;;10.70;99.90;;;;;;5052935;28;20174;-64
2022/06/03 02:11:20;;;;;;;9.13;8.50;;;10.70;99.90;;;;;;5052589;28;20206;-62
2022/06/03 02:14:23;;;;;;;8.77;8.17;;;10.80;99.90;;;;;;5052603;28;20178;-64
2022/06/03 02:17:22;;;;;;;8.77;8.17;;;10.80;99.90;;;;;;5052403;28;20177;-64
2022/06/03 02:19:48;;;;;;;9.40;8.63;;;10.70;99.90;;;;;;5053422;28;20305;-68
2022/06/03 02:22:41;;;;;;;8.63;7.93;;;10.70;99.90;;;;;;5050913;28;20214;-66
2022/06/03 02:25:22;;;;;;;8.77;8.17;;;10.60;99.90;;;;;;5052836;28;20209;-66
2022/06/03 02:27:56;;;;;;;9.40;8.70;;;10.70;99.90;;;;;;5052569;28;20171;-67
2022/06/03 02:30:46;;;;;;;8.00;7.50;;;10.60;99.90;;;;;;5053305;28;20181;-67
2022/06/03 02:33:35;;;;;;;8.80;8.10;;;10.60;99.90;;;;;;5053221;28;20179;-69
2022/06/03 02:36:16;;;;;;;9.17;8.57;;;10.60;99.90;;;;;;5052860;28;20175;-69
2022/06/03 02:38:53;;;;;;;8.50;7.80;;;10.50;99.90;;;;;;5052155;28;20179;-66
2022/06/03 02:41:57;;;;;;;8.67;8.07;;;10.40;99.90;;;;;;5051804;28;20565;-70
2022/06/03 02:45:04;;;;;;;9.17;8.47;;;10.40;99.90;;;;;;5052600;28;20228;-69
2022/06/03 02:47:44;;;;;;;9.47;8.63;;;10.40;99.90;;;;;;5053047;28;20181;-69
2022/06/03 02:50:21;;;;;;;9.43;8.73;;;10.30;99.90;;;;;;5051134;28;20175;-67
2022/06/03 02:52:58;;;;;;;10.20;9.47;;;10.30;99.90;;;;;;5053092;28;20641;-68
2022/06/03 02:55:41;;;;;;;9.80;9.07;;;10.30;99.90;;;;;;5051796;28;20166;-71
2022/06/03 02:58:26;;;;;;;9.70;9.00;;;10.20;99.90;;;;;;5052414;28;20174;-69
2022/06/03 03:01:00;;;;;;;9.63;8.93;;;10.20;99.90;;;;;;5052133;28;20547;-68
2022/06/03 03:03:38;;;;;;;10.73;9.83;;;10.20;99.90;;;;;;5050802;28;20217;-67
2022/06/03 03:06:09;;;;;;;10.60;9.87;;;10.20;99.90;;;;;;5051241;28;20182;-70
2022/06/03 03:09:06;;;;;;;11.40;10.03;;;10.20;99.90;;;;;;5052703;28;20253;-67
2022/06/03 03:11:56;;;;;;;13.53;10.00;;;10.20;99.90;;;;;;5052419;28;20290;-70
2022/06/03 03:15:07;;;;;;;10.70;9.70;;;10.20;99.90;;;;;;5050880;28;20545;-68
2022/06/03 03:18:03;;;;;;;9.90;9.10;;;10.10;99.90;;;;;;5037097;28;20266;-67
2022/06/03 03:20:31;;;;;;;10.60;9.70;;;10.10;99.90;;;;;;5032737;28;20176;-67
2022/06/03 03:23:26;;;;;;;10.10;9.30;;;10.10;99.90;;;;;;5031548;28;20207;-68
2022/06/03 03:26:06;;;;;;;9.70;8.77;;;10.10;99.90;;;;;;5022148;28;20192;-69
2022/06/03 03:28:53;;;;;;;10.97;10.07;;;10.10;99.90;;;;;;5037142;28;20175;-66
2022/06/03 03:31:39;;;;;;;10.63;9.67;;;10.20;99.90;;;;;;5052177;28;20214;-67
2022/06/03 03:34:46;;;;;;;10.57;9.57;;;10.20;99.90;;;;;;5051572;28;20602;-67
2022/06/03 03:38:03;;;;;;;11.23;10.33;;;10.40;99.90;;;;;;5052191;28;20372;-67
2022/06/03 03:40:49;;;;;;;10.43;9.40;;;10.40;99.90;;;;;;5018606;28;20222;-67
2022/06/03 03:43:38;;;;;;;11.10;10.10;;;10.40;99.90;;;;;;5051998;28;20207;-67
2022/06/03 03:46:28;;;;;;;9.30;8.53;;;10.40;99.90;;;;;;5053029;28;20175;-66
2022/06/03 03:49:38;;;;;;;10.67;9.53;;;10.30;99.90;;;;;;5051126;28;20171;-67
2022/06/03 03:52:18;;;;;;;10.40;9.50;;;10.30;99.90;;;;;;4990324;28;20224;-67
2022/06/03 03:55:07;;;;;;;10.50;9.57;;;10.40;99.90;;;;;;5048631;28;20193;-67
2022/06/03 03:57:36;;;;;;;11.03;10.20;;;10.40;99.90;;;;;;5050535;28;20179;-68
2022/06/03 04:00:04;;;;;;;10.97;10.07;;;10.50;99.90;;;;;;5051912;28;20179;-63
2022/06/03 04:03:01;;;;;;;10.57;9.57;;;10.60;99.90;;;;;;5050678;28;20252;-63
2022/06/03 04:05:45;;;;;;;9.90;9.13;;;10.70;99.90;;;;;;5049664;28;20167;-63
2022/06/03 04:08:46;;;;;;;9.97;9.20;;;10.90;99.90;;;;;;5050740;28;20181;-64
2022/06/03 04:11:38;;;;;;;9.57;8.87;;;11.00;99.90;;;;;;5050886;28;20222;-63
2022/06/03 04:14:39;;;;;;;10.27;9.43;;;11.10;99.90;;;;;;5050665;28;20269;-63
2022/06/03 04:17:38;;;;;;;9.57;8.87;;;11.20;99.90;;;;;;4988826;28;20185;-64
2022/06/03 04:20:25;;;;;;;8.63;8.03;;;11.40;99.90;;;;;;5050814;28;20707;-63
2022/06/03 04:23:17;;;;;;;9.17;8.57;;;11.60;99.90;;;;;;5050820;28;20237;-63
2022/06/03 04:26:32;;;;;;;9.03;8.33;;;11.90;99.90;;;;;;5026692;28;20269;-64
2022/06/03 04:29:39;;;;;;;8.50;7.70;;;12.30;99.90;;;;;;5030735;28;20552;-63
2022/06/03 04:32:23;;;;;;;7.93;7.23;;;12.60;99.90;;;;;;5039467;28;20682;-63
2022/06/03 04:35:27;;;;;;;8.40;7.60;;;12.80;99.90;;;;;;5050395;28;20604;-63
2022/06/03 04:38:29;;;;;;;7.93;7.27;;;13.30;99.90;;;;;;5050302;28;20210;-61
2022/06/03 04:41:23;;;;;;;8.20;7.50;;;13.70;99.90;;;;;;5050582;28;20174;-62
2022/06/03 04:44:10;;;;;;;8.40;7.80;;;14.10;99.90;;;;;;5030304;28;20283;-63
2022/06/03 04:47:13;;;;;;;7.57;6.97;;;14.40;99.90;;;;;;5032762;28;20168;-63
2022/06/03 04:50:08;;;;;;;7.63;7.03;;;14.70;99.90;;;;;;5038421;28;20178;-63
2022/06/03 04:52:55;;;;;;;9.30;6.63;;;15.00;99.90;;;;;;5053947;28;20202;-62
2022/06/03 04:55:27;;;;;;;6.93;6.33;;;15.40;99.90;;;;;;5043536;28;20210;-63
2022/06/03 04:58:30;;;;;;;7.53;6.80;;;15.80;99.90;;;;;;5052777;28;20277;-64
2022/06/03 05:01:18;;;;;;;7.33;6.73;;;16.20;99.90;;;;;;5031890;28;20346;-63
2022/06/03 05:04:02;;;;;;;6.60;6.20;;;16.30;99.90;;;;;;5053354;28;20743;-63
2022/06/03 05:06:55;;;;;;;7.03;6.53;;;16.50;99.90;;;;;;5054085;28;20167;-63
2022/06/03 05:09:39;;;;;;;7.07;6.00;;;16.80;99.90;;;;;;5053656;28;20179;-65
2022/06/03 05:12:39;;;;;;;6.20;5.70;;;17.20;99.90;;;;;;5053810;28;20222;-63
2022/06/03 05:15:16;;;;;;;6.03;5.63;;;17.60;99.90;;;;;;5033476;28;20639;-63
2022/06/03 05:18:09;;;;;;;5.60;5.20;;;17.90;99.90;;;;;;5034957;28;20179;-63
2022/06/03 05:20:35;;;;;;;5.43;5.03;;;18.30;99.90;;;;;;5053705;28;20178;-64
2022/06/03 05:23:34;;;;;;;6.20;5.60;;;18.50;99.90;;;;;;5053213;28;20214;-63
2022/06/03 05:26:31;;;;;;;5.07;4.77;;;18.90;99.90;;;;;;5053638;28;20194;-63
2022/06/03 05:29:30;;;;;;;7.27;5.03;;;19.20;99.90;;;;;;5053330;28;20305;-64
2022/06/03 05:32:20;;;;;;;5.53;5.13;;;19.20;99.90;;;;;;5053380;28;20329;-64
2022/06/03 05:35:04;;;;;;;5.80;5.40;;;19.10;99.90;;;;;;5053454;28;20171;-65
2022/06/03 05:37:42;;;;;;;6.07;5.67;;;19.00;99.90;;;;;;5053358;28;20167;-65
2022/06/03 05:40:33;;;;;;;5.73;5.33;;;19.00;99.90;;;;;;5053693;28;20175;-65
2022/06/03 05:43:27;;;;;;;5.60;5.10;;;19.30;99.90;;;;;;5053012;28;20222;-64
2022/06/03 05:45:59;;;;;;;4.93;4.63;;;19.50;99.90;;;;;;5053443;28;20581;-63
2022/06/03 05:48:39;;;;;;;5.37;4.97;;;19.90;99.90;;;;;;5053570;28;20531;-64
2022/06/03 05:51:26;;;;;;;5.60;5.20;;;20.30;99.90;;;;;;5053090;28;20545;-63
2022/06/03 05:54:07;;;;;;;5.30;4.90;;;20.60;99.90;;;;;;5052946;28;20181;-64
2022/06/03 05:56:52;;;;;;;5.55;5.15;;;20.90;99.90;;;;;;5053479;28;20175;-65
2022/06/03 05:59:20;;;;;;;4.88;4.47;;;21.00;99.90;;;;;;5053436;28;20269;-64
2022/06/03 06:02:07;;;;;;;5.63;5.13;;;21.20;99.90;;;;;;5053841;28;20557;-65
2022/06/03 06:04:52;;;;;;;5.35;4.95;;;21.20;99.90;;;;;;5070426;28;20182;-64
2022/06/03 06:07:31;;;;;;;4.90;4.60;;;21.20;99.90;;;;;;5071575;28;20214;-65
2022/06/03 06:10:16;;;;;;;5.35;4.97;;;21.20;99.90;;;;;;5069482;28;20220;-65
2022/06/03 06:13:09;;;;;;;5.75;5.25;;;21.30;99.90;;;;;;5072134;28;20737;-65
2022/06/03 06:15:46;;;;;;;4.82;4.53;;;21.40;99.90;;;;;;5069758;28;20182;-65
2022/06/03 06:18:25;;;;;;;5.05;4.70;;;21.80;99.90;;;;;;5071330;28;20658;-65
2022/06/03 06:21:03;;;;;;;4.40;4.10;;;22.20;99.90;;;;;;5071109;28;20171;-65
2022/06/03 06:23:36;;;;;;;5.25;4.75;;;22.40;99.90;;;;;;5069381;28;20206;-65
2022/06/03 06:26:13;;;;;;;5.72;4.32;;;22.60;99.90;;;;;;5056208;28;20648;-64
2022/06/03 06:28:48;;;;;;;4.30;4.00;;;22.90;99.90;;;;;;5051795;28;20220;-64
2022/06/03 06:31:40;;;;;;;6.78;3.88;;;23.20;99.90;;;;;;5052239;28;20676;-64
2022/06/03 06:34:29;;;;;;;4.07;3.78;;;23.50;99.90;;;;;;5051399;28;20668;-63
2022/06/03 06:37:38;;;;;;;3.97;3.67;;;23.60;99.90;;;;;;5052206;28;20632;-63
2022/06/03 06:40:09;;;;;;;3.90;3.60;;;23.90;99.90;;;;;;5043223;28;20328;-64
2022/06/03 06:43:03;;;;;;;4.07;3.78;;;24.00;99.90;;;;;;5051630;28;20202;-63
2022/06/03 06:45:31;;;;;;;3.67;3.47;;;24.20;99.90;;;;;;5050378;28;20531;-63
2022/06/03 06:48:24;;;;;;;4.35;3.95;;;24.30;99.90;;;;;;5051496;28;20548;-63
2022/06/03 06:51:02;;;;;;;4.32;3.97;;;24.30;99.90;;;;;;5051761;28;20171;-64
2022/06/03 06:53:43;;;;;;;4.72;4.32;;;24.30;99.90;;;;;;5050208;28;20281;-63
2022/06/03 06:56:30;;;;;;;4.20;3.67;;;24.10;99.90;;;;;;5051926;28;20232;-63
2022/06/03 06:59:06;;;;;;;4.30;3.90;;;23.90;99.90;;;;;;5051265;28;20178;-64
2022/06/03 07:01:48;;;;;;;4.10;3.78;;;23.90;99.90;;;;;;5051552;28;20568;-63
2022/06/03 07:04:20;;;;;;;3.75;3.45;;;23.80;99.90;;;;;;5051145;28;20182;-63
2022/06/03 07:07:03;;;;;;;3.72;3.53;;;24.10;99.90;;;;;;5050462;28;20179;-64
2022/06/03 07:09:51;;;;;;;3.72;3.42;;;24.40;99.90;;;;;;5051031;28;20175;-61
2022/06/03 07:12:21;;;;;;;6.72;3.63;;;24.80;99.90;;;;;;5051409;28;20305;-64
2022/06/03 07:15:07;;;;;;;3.50;3.20;;;25.20;99.90;;;;;;5051067;28;20175;-64
2022/06/03 07:20:50;;;;;;;3.70;3.50;;;25.10;99.90;;;;;;5031830;28;20187;-63
2022/06/03 07:23:54;;;;;;;3.72;3.53;;;24.80;99.90;;;;;;5034855;28;20202;-64
2022/06/03 07:26:43;;;;;;;3.83;3.50;;;25.30;99.90;;;;;;5021874;28;20266;-64
2022/06/03 07:29:27;;;;;;;4.40;3.33;;;25.90;99.90;;;;;;5041128;28;20183;-64
2022/06/03 07:32:01;;;;;;;7.28;3.50;;;26.20;99.90;;;;;;5051161;28;20198;-65
2022/06/03 07:34:39;;;;;;;3.25;3.05;;;26.50;99.90;;;;;;5050658;28;20208;-64
2022/06/03 07:37:25;;;;;;;3.63;3.33;;;27.00;99.90;;;;;;5051216;28;20545;-64
2022/06/03 07:40:13;;;;;;;3.10;2.90;;;27.10;99.90;;;;;;5051206;28;20174;-64
2022/06/03 07:43:01;;;;;;;3.35;3.05;;;27.10;99.90;;;;;;5049795;28;20207;-65
2022/06/03 07:45:38;;;;;;;3.33;3.13;;;27.20;99.90;;;;;;5050648;28;20183;-64
2022/06/03 07:48:13;;;;;;;4.10;3.60;;;27.20;99.90;;;;;;5049932;28;20170;-65
2022/06/03 07:50:59;;;;;;;3.30;3.10;;;27.50;99.90;;;;;;5049131;28;20197;-64
2022/06/03 07:53:51;;;;;;;3.03;2.83;;;28.10;99.90;;;;;;5050600;28;20170;-64
2022/06/03 07:56:21;;;;;;;2.95;2.75;;;28.60;99.90;;;;;;5031161;28;20167;-64
2022/06/03 07:58:51;;;;;;;2.97;2.78;;;28.60;99.90;;;;;;5035012;28;20175;-65
2022/06/03 08:01:26;;;;;;;3.35;3.13;;;28.50;99.90;;;;;;5031137;28;20202;-64
2022/06/03 08:03:53;;;;;;;3.35;3.15;;;28.60;99.90;;;;;;5035056;28;20202;-65
2022/06/03 08:10:56;;;;;;;3.00;2.80;;;28.70;99.90;;;;;;5050794;28;20627;-64
2022/06/03 08:12:00;;;;;;;3.17;2.97;;;29.20;99.90;;;;;;5051580;28;20688;-64
2022/06/03 08:14:27;;;;;;;3.15;2.85;;;29.00;99.90;;;;;;5050659;28;20325;-64
2022/06/03 08:16:54;;;;;;;3.30;3.00;;;29.10;99.90;;;;;;5050891;28;20548;-63
2022/06/03 08:19:26;;;;;;;3.10;2.90;;;29.10;99.90;;;;;;5049425;28;20220;-63
2022/06/03 08:21:57;;;;;;;3.40;3.10;;;29.00;98.50;;;;;;5052981;28;20293;-64
2022/06/03 08:24:25;;;;;;;3.38;3.15;;;29.10;99.90;;;;;;5051742;28;20630;-64
2022/06/03 08:27:02;;;;;;;4.53;2.80;;;29.00;98.90;;;;;;5054648;28;20277;-64
2022/06/03 08:29:39;;;;;;;2.60;2.50;;;29.30;99.90;;;;;;5053856;28;20170;-64
2022/06/03 08:32:08;;;;;;;2.90;2.63;;;29.40;95.90;;;;;;5054490;28;20205;-63
2022/06/03 08:34:39;;;;;;;3.72;3.00;;;29.40;97.70;;;;;;5054067;28;20174;-64
2022/06/03 08:37:09;;;;;;;3.00;2.90;;;29.40;97.70;;;;;;5054477;28;20178;-64
2022/06/03 08:39:38;;;;;;;2.78;2.67;;;29.20;95.90;;;;;;5054029;28;20167;-64
2022/06/03 08:42:10;;;;;;;2.70;2.60;;;29.30;97.60;;;;;;5053969;28;20194;-65
2022/06/03 08:44:44;;;;;;;2.90;2.70;;;29.70;96.20;;;;;;5054082;28;20177;-63
2022/06/03 08:47:17;;;;;;;2.80;2.70;;;29.70;95.60;;;;;;5054066;28;20537;-64
2022/06/03 08:49:57;;;;;;;3.10;2.90;;;29.40;96.00;;;;;;5054233;28;20429;-63
2022/06/03 08:52:44;;;;;;;2.90;2.70;;;29.40;96.20;;;;;;5054268;28;20194;-64
2022/06/03 08:55:25;;;;;;;4.38;3.28;;;29.30;96.50;;;;;;5050837;28;20716;-64
2022/06/03 08:57:56;;;;;;;5.18;2.97;;;29.20;96.50;;;;;;5051498;28;20301;-64
2022/06/03 09:00:40;;;;;;;3.95;2.72;;;29.20;96.30;;;;;;5054198;28;20258;-64
2022/06/03 09:03:14;;;;;;;3.63;2.90;;;29.40;97.50;;;;;;5053524;28;20568;-65
2022/06/03 09:05:58;;;;;;;2.40;2.30;;;29.80;98.10;;;;;;5053692;28;20166;-66
2022/06/03 09:08:36;;;;;;;4.50;2.40;;;30.40;94.50;;;;;;5053847;28;20167;-64
2022/06/03 09:11:34;;;;;;;2.70;2.58;;;30.60;96.90;;;;;;5053884;28;20201;-65
2022/06/03 09:14:04;;;;;;;2.83;2.63;;;30.90;95.10;;;;;;5021917;28;20194;-64
2022/06/03 09:16:33;;;;;;;3.17;2.80;;;31.10;96.70;;;;;;5053932;28;20246;-65
2022/06/03 09:19:14;;;;;;;3.60;3.00;;;30.70;92.80;;;;;;5053383;28;20205;-64
2022/06/03 09:21:44;;;;;;;3.17;2.80;;;30.80;94.80;;;;;;5053350;28;20225;-65
2022/06/03 09:24:15;;;;;;;2.75;2.50;;;30.80;92.20;;;;;;5053152;28;20211;-64
2022/06/03 09:26:49;;;;;;;2.97;2.78;;;30.90;93.90;;;;;;5053301;28;20178;-64
2022/06/03 09:29:16;;;;;;;2.80;2.60;;;31.10;90.70;;;;;;5051580;28;20183;-65
2022/06/03 09:31:57;;;;;;;3.30;3.10;;;30.50;92.60;;;;;;5052809;28;20194;-64
2022/06/03 09:34:40;;;;;;;2.70;2.60;;;30.50;91.50;;;;;;5053083;28;20182;-64
2022/06/03 09:37:09;;;;;;;3.22;3.03;;;30.20;93.10;;;;;;5052990;28;20187;-65
2022/06/03 09:39:35;;;;;;;3.00;2.80;;;29.90;93.80;;;;;;5053277;28;20171;-64
2022/06/03 09:42:03;;;;;;;3.20;2.95;;;29.70;94.40;;;;;;5052684;28;20245;-64
2022/06/03 09:44:29;;;;;;;3.67;3.38;;;29.80;94.60;;;;;;5051654;28;20171;-64
2022/06/03 09:47:01;;;;;;;3.80;2.70;;;30.10;93.80;;;;;;5052925;28;20178;-64
2022/06/03 09:49:29;;;;;;;3.05;2.85;;;30.60;94.70;;;;;;5053186;28;20159;-65
2022/06/03 09:52:00;;;;;;;3.28;2.97;;;30.80;91.50;;;;;;5052665;28;20194;-64
2022/06/03 09:54:31;;;;;;;3.13;2.88;;;30.60;90.80;;;;;;5053008;28;20171;-64
2022/06/03 09:57:06;;;;;;;3.55;2.60;;;30.50;90.70;;;;;;5052188;28;20178;-65
2022/06/03 09:59:35;;;;;;;2.80;2.60;;;30.80;94.00;;;;;;5053012;28;20170;-63
2022/06/03 10:02:00;;;;;;;4.05;2.42;;;31.00;92.60;;;;;;5052239;28;20195;-64
2022/06/03 10:04:26;;;;;;;4.63;3.30;;;31.30;91.90;;;;;;5052786;28;20635;-64
2022/06/03 10:06:53;;;;;;;2.90;2.58;;;31.50;90.20;;;;;;5050313;28;20551;-62
2022/06/03 10:17:46;;;;;;;2.83;2.55;;;30.60;90.70;;;;;;5052712;28;20236;-64
2022/06/03 10:20:12;;;;;;;2.65;2.53;;;31.20;91.30;;;;;;5052662;28;20174;-64
2022/06/03 10:22:37;;;;;;;2.50;2.30;;;31.70;91.50;;;;;;5052746;28;20709;-65
2022/06/03 10:25:04;;;;;;;2.33;2.22;;;32.30;90.80;;;;;;5051836;28;20174;-65
2022/06/03 10:27:30;;;;;;;2.70;2.50;;;32.50;89.70;;;;;;5052444;28;20178;-64
2022/06/03 10:29:59;;;;;;;2.70;2.50;;;32.50;88.40;;;;;;5052249;28;20662;-65
2022/06/03 10:32:25;;;;;;;2.40;2.30;;;32.70;91.80;;;;;;5032617;28;20670;-65
2022/06/03 10:34:56;;;;;;;2.90;2.70;;;32.70;87.70;;;;;;5032034;28;20179;-65
2022/06/03 10:37:24;;;;;;;2.83;2.63;;;32.90;89.90;;;;;;5052053;28;20235;-65
2022/06/03 10:39:54;;;;;;;3.25;2.50;;;32.70;86.50;;;;;;5051748;28;20626;-65
2022/06/03 10:42:22;;;;;;;2.85;2.65;;;32.00;85.70;;;;;;5051889;28;20923;-66
2022/06/03 10:44:54;;;;;;;2.70;2.53;;;31.70;88.80;;;;;;5050950;28;20183;-66
2022/06/03 10:47:22;;;;;;;3.00;2.80;;;31.40;86.90;;;;;;5051930;28;20631;-65
2022/06/03 10:49:59;;;;;;;2.70;2.60;;;31.00;84.50;;;;;;5051749;28;20528;-66
2022/06/03 11:01:27;;;;;;;4.43;2.97;;;30.70;89.10;;;;;;5051255;28;20197;-64
2022/06/03 11:03:53;;;;;;;2.70;2.60;;;30.60;91.20;;;;;;5051041;28;20209;-63
2022/06/03 11:06:34;;;;;;;2.90;2.80;;;30.80;92.10;;;;;;5051377;28;20177;-65
2022/06/03 11:09:03;;;;;;;3.20;2.90;;;31.10;88.80;;;;;;5051603;28;20178;-65
2022/06/03 11:11:47;;;;;;;3.40;3.20;;;31.10;87.70;;;;;;5051354;28;20213;-63
2022/06/03 11:14:39;;;;;;;3.00;2.80;;;31.40;88.80;;;;;;5051244;28;20178;-63
2022/06/03 11:17:10;;;;;;;3.05;2.83;;;31.80;86.00;;;;;;5051154;28;20251;-64
2022/06/03 11:19:44;;;;;;;3.38;3.03;;;32.00;88.30;;;;;;5051441;28;20198;-64
2022/06/03 11:22:32;;;;;;;3.60;2.75;;;32.00;89.30;;;;;;5050853;28;20210;-65
2022/06/03 11:25:31;;;;;;;3.00;2.80;;;31.90;90.40;;;;;;5051017;28;20624;-65
2022/06/03 11:28:14;;;;;;;4.03;2.60;;;32.00;85.60;;;;;;5049216;28;20383;-65
2022/06/03 11:30:59;;;;;;;3.58;2.67;;;32.10;89.80;;;;;;5051483;28;20181;-65
2022/06/03 11:33:44;;;;;;;3.13;2.80;;;31.90;85.70;;;;;;5050664;28;20324;-64
2022/06/03 11:36:11;;;;;;;3.70;2.80;;;31.10;87.00;;;;;;5050998;28;20281;-65
2022/06/03 11:38:59;;;;;;;2.97;2.78;;;30.40;89.30;;;;;;5050812;28;20179;-65
2022/06/03 11:41:32;;;;;;;3.00;2.80;;;30.10;88.10;;;;;;5051365;28;20198;-65
2022/06/03 11:44:09;;;;;;;3.13;2.92;;;29.90;88.90;;;;;;5030668;28;20203;-64
2022/06/03 11:46:48;;;;;;;3.72;3.45;;;29.90;88.60;;;;;;5031645;28;20171;-64
2022/06/03 11:49:18;;;;;;;3.45;2.80;;;29.60;91.90;;;;;;5031226;28;20195;-64
2022/06/03 11:51:46;;;;;;;3.15;2.70;;;29.50;88.30;;;;;;5040381;28;20285;-64
2022/06/03 11:54:15;;;;;;;3.25;3.05;;;29.40;86.70;;;;;;5050518;28;20717;-65
2022/06/03 11:56:43;;;;;;;3.10;2.90;;;29.10;90.00;;;;;;5055107;28;20236;-65
2022/06/03 11:59:32;;;;;;;4.20;3.10;;;29.10;89.20;;;;;;5054912;28;20221;-65
2022/06/03 12:02:06;;;;;;;3.30;2.92;;;29.10;91.40;;;;;;5052366;28;20218;-64
2022/06/03 12:04:44;;;;;;;3.50;3.30;;;29.20;91.10;;;;;;5055040;28;20177;-65
2022/06/03 12:07:21;;;;;;;3.20;3.00;;;29.10;90.20;;;;;;5054736;28;20541;-65
2022/06/03 12:10:11;;;;;;;3.22;3.03;;;29.20;90.50;;;;;;5055058;28;20584;-65
2022/06/03 12:15:33;;;;;;;3.22;3.00;;;30.10;88.60;;;;;;5055128;28;20229;-66
2022/06/03 12:18:16;;;;;;;3.42;3.00;;;30.20;88.00;;;;;;5054349;28;20207;-65
2022/06/03 12:20:47;;;;;;;3.00;2.80;;;30.40;91.10;;;;;;5054667;28;20182;-64
2022/06/03 12:23:12;;;;;;;3.33;3.13;;;30.90;90.10;;;;;;5050361;28;20209;-64
2022/06/03 12:25:41;;;;;;;3.30;2.70;;;31.10;91.50;;;;;;5053973;28;20558;-65
2022/06/03 12:28:16;;;;;;;3.10;2.90;;;31.30;88.60;;;;;;5054214;28;20186;-65
2022/06/03 12:30:45;;;;;;;3.05;2.85;;;31.30;93.10;;;;;;5054750;28;20182;-65
2022/06/03 12:33:46;;;;;;;3.08;2.88;;;31.30;90.00;;;;;;5054135;28;20220;-65
2022/06/03 12:36:51;;;;;;;2.75;2.55;;;31.20;89.60;;;;;;5054368;28;20177;-65
2022/06/03 12:39:25;;;;;;;4.20;2.78;;;31.00;87.90;;;;;;5054248;28;20210;-65
2022/06/03 12:41:51;;;;;;;3.20;3.00;;;30.70;85.00;;;;;;5054009;28;20202;-64
2022/06/03 12:44:41;;;;;;;3.10;2.90;;;30.80;90.40;;;;;;5053984;28;20198;-66
2022/06/03 12:47:24;;;;;;;4.13;3.45;;;30.90;90.90;;;;;;5054239;28;20522;-65
2022/06/03 12:50:25;;;;;;;5.28;3.75;;;30.10;91.50;;;;;;5053944;28;20167;-65
2022/06/03 12:52:58;;;;;;;3.65;3.42;;;30.10;93.80;;;;;;5036596;28;20657;-65
2022/06/03 12:55:36;;;;;;;3.55;3.08;;;30.40;93.60;;;;;;5053365;28;20190;-65
2022/06/03 12:58:23;;;;;;;4.88;3.42;;;30.30;92.50;;;;;;5054080;28;20198;-65
2022/06/03 13:00:56;;;;;;;3.20;3.00;;;30.20;93.00;;;;;;5053795;28;20265;-65
2022/06/03 13:03:24;;;;;;;5.25;3.25;;;30.00;93.20;;;;;;5054114;28;20190;-65
2022/06/03 13:05:51;;;;;;;3.30;3.10;;;29.60;92.70;;;;;;5053763;28;20202;-64
2022/06/03 13:08:28;;;;;;;3.50;3.20;;;29.40;93.80;;;;;;5053132;28;20174;-65
2022/06/03 13:11:22;;;;;;;3.80;3.60;;;29.50;94.10;;;;;;5053621;28;20197;-64
2022/06/03 13:13:56;;;;;;;3.78;3.47;;;29.30;93.40;;;;;;5041336;28;20178;-65
2022/06/03 13:16:36;;;;;;;3.83;3.60;;;29.10;95.10;;;;;;5053677;28;20190;-65
2022/06/03 13:19:22;;;;;;;3.80;3.50;;;29.10;95.20;;;;;;5053748;28;20206;-65
2022/06/03 13:22:02;;;;;;;4.07;3.78;;;29.30;94.80;;;;;;5053244;28;20224;-65
2022/06/03 13:24:29;;;;;;;3.15;2.95;;;29.30;95.30;;;;;;5053573;28;20178;-65
2022/06/03 13:26:58;;;;;;;3.53;3.22;;;29.50;96.00;;;;;;5053419;28;20179;-65
2022/06/03 13:29:52;;;;;;;3.38;3.17;;;29.80;95.50;;;;;;5053746;28;20163;-65
2022/06/03 13:32:35;;;;;;;3.42;3.20;;;29.60;94.50;;;;;;5049031;28;20282;-65
2022/06/03 13:35:24;;;;;;;3.58;3.38;;;29.40;97.00;;;;;;5053386;28;20567;-65
2022/06/03 13:37:55;;;;;;;3.33;3.13;;;29.70;94.20;;;;;;5033429;28;20286;-65
2022/06/03 13:40:24;;;;;;;3.45;3.17;;;30.00;93.80;;;;;;5034024;28;20691;-65
2022/06/03 13:43:10;;;;;;;3.42;3.22;;;30.30;93.70;;;;;;5053118;28;20195;-65
2022/06/03 13:45:47;;;;;;;3.72;3.53;;;30.40;93.30;;;;;;5042098;28;20185;-64
2022/06/03 13:48:26;;;;;;;3.78;3.50;;;30.40;93.50;;;;;;5053326;28;20646;-65
2022/06/03 13:50:52;;;;;;;3.28;3.08;;;30.40;94.60;;;;;;5052974;28;20174;-65
2022/06/03 13:53:31;;;;;;;3.40;3.20;;;30.70;95.10;;;;;;5053145;28;20514;-64
2022/06/03 13:56:04;;;;;;;5.07;3.00;;;31.30;97.20;;;;;;5052643;28;20183;-65
2022/06/03 13:58:37;;;;;;;2.83;2.72;;;31.50;93.30;;;;;;5052787;28;20220;-65
2022/06/03 14:01:31;;;;;;;3.40;3.13;;;31.50;93.60;;;;;;5052455;28;20261;-65
2022/06/03 14:04:13;;;;;;;3.28;2.97;;;31.80;94.20;;;;;;5052185;28;20661;-65
2022/06/03 14:06:43;;;;;;;4.10;2.85;;;32.10;94.20;;;;;;5052664;28;20190;-65
2022/06/03 14:09:19;;;;;;;3.15;2.95;;;32.20;93.00;;;;;;5052294;28;20646;-65
2022/06/03 14:11:48;;;;;;;3.42;3.22;;;32.30;93.40;;;;;;5052621;28;20285;-65
2022/06/03 14:14:26;;;;;;;3.70;3.00;;;32.40;92.20;;;;;;5050654;28;20179;-65
2022/06/03 14:17:01;;;;;;;2.95;2.78;;;32.60;93.30;;;;;;5052465;28;20221;-64
2022/06/03 14:19:32;;;;;;;3.60;3.30;;;32.80;93.20;;;;;;5051334;28;20174;-65
2022/06/03 14:22:03;;;;;;;3.45;3.13;;;32.80;92.20;;;;;;5052162;28;20280;-65
2022/06/03 14:24:48;;;;;;;4.28;3.00;;;32.50;93.00;;;;;;5052086;28;20179;-64